Gore Bay Manitoulin Airport
CYZE : now visible

Airfield :











YOU CAN JOIN US ON...

 
LOGIN :

Register | Disclaimer

   EN    FR    IT 

 









Legend :    VFR   Marginal VFR   IFR   Intensive IFR   Very Intensive IFR
Visi :
Ceiling :
>= 8 km
>= 3000ft
5 to 8 km
1000 to 3000 ft
1500m to 5 km
500 to 1000 ft
800 to 1500m
200 to 500 ft
< 800m
< 200 ft
Symbols :   Thunderstorms  Fog  Heavy snow  Heavy precipitations  Wind > 20 kt







- Airport Elevation : 635 ft
- IATA code : YZE


CYZE - Gore Bay Manitoulin

CURRENT METAR :
  • 191439Z AUTO 19009KT 9SM BKN013 24/22 A2972 RMK SLP065 DENSITY ALT 2000FT

EXPIRED METARs :
  • 191400Z AUTO 22008KT 9SM FEW120 25/22 A2974 RMK SLP071 DENSITY ALT 2100FT
  • 191300Z AUTO 25007KT 9SM SCT012 24/21 A2974 RMK SLP071 DENSITY ALT 1900FT
  • 191247Z AUTO 26005KT 220V290 9SM SCT012 24/21 A2973 RMK SLP069 DENSITY ALT 1900FT
  • 191236Z AUTO 21003KT 180V240 9SM BKN012 BKN150 23/21 A2974 RMK SLP070 DENSITY ALT 1800FT
  • 191200Z AUTO 21008KT 9SM CLR 23/21 A2972 RMK PRESRR SLP063 DENSITY ALT 1800FT

TAF TAF CYZE
Valid from the 19 at 14:00 until the 19 at 22:00 UTC


191342Z 1914/1922 23006KT P6SM SCT012
TEMPO 1914/1915 BKN008
FM191500 20012KT P6SM SCT030
TEMPO 1915/1922 BKN020
BECMG 1915/1917 25012G22KT RMK FCST BASED ON AUTO OBS. NXT FCST BY 192000Z
CZYZ FIR / North America



MET'MAP, your aeronautical weather chart ! - Copyright ORBIFLY December 2007 - Disclaimer

ORBIFLY MET'MAP TEAM :

Programming & Development : Alexandra Zaïnal
Concept & Development : Baudouin d'Aumeries
Co-Development & Prog : Marc-Olivier Méhu
Technical & hardware support : Manuel Goepfert

Contact : metmap@orbifly.com




SOURCES & CREDITS :

   NOAA       Earth
Advisory